createdAt,value
2019-02-16T00:01:15.403Z,19.27
2019-02-16T00:03:46.077Z,20.20
2019-02-16T00:06:16.706Z,21.07
2019-02-16T00:08:47.127Z,22.03
2019-02-16T00:11:17.535Z,21.17
2019-02-16T00:13:48.038Z,20.47
2019-02-16T00:16:18.519Z,20.03
2019-02-16T00:18:49.625Z,19.93
2019-02-16T00:21:20.084Z,19.37
2019-02-16T00:23:50.714Z,18.07
2019-02-16T00:26:21.952Z,18.93
2019-02-16T00:28:52.535Z,19.40
2019-02-16T00:31:22.972Z,18.17
2019-02-16T00:33:53.693Z,18.03
2019-02-16T00:36:24.322Z,18.37
2019-02-16T00:38:54.740Z,18.77
2019-02-16T00:41:25.232Z,18.20
2019-02-16T00:43:55.653Z,17.43
2019-02-16T00:46:26.135Z,17.40
2019-02-16T00:48:56.717Z,18.33
2019-02-16T00:51:27.311Z,19.13
2019-02-16T00:53:57.747Z,18.80
2019-02-16T00:56:28.225Z,17.03
2019-02-16T00:58:59.055Z,18.70
2019-02-16T01:01:29.623Z,17.90
2019-02-16T01:04:00.081Z,18.17
2019-02-16T01:06:30.606Z,15.73
2019-02-16T01:09:01.179Z,17.80
2019-02-16T01:11:31.632Z,17.27
2019-02-16T01:14:02.409Z,16.23
2019-02-16T01:16:33.034Z,16.83
2019-02-16T01:19:03.590Z,14.57
2019-02-16T01:21:33.972Z,13.83
2019-02-16T01:24:04.563Z,14.10
2019-02-16T01:26:35.758Z,11.50
2019-02-16T01:29:06.288Z,12.33
2019-02-16T01:31:36.854Z,12.17
2019-02-16T01:34:07.431Z,12.20
2019-02-16T01:36:38.036Z,12.20
2019-02-16T01:39:08.472Z,11.03
2019-02-16T01:41:39.030Z,11.70
2019-02-16T01:44:09.496Z,11.30
2019-02-16T01:46:40.134Z,11.93
2019-02-16T01:49:10.656Z,11.97
2019-02-16T01:51:41.236Z,13.30
2019-02-16T01:54:11.858Z,12.43
2019-02-16T01:56:42.301Z,11.70
2019-02-16T01:59:12.842Z,12.50
2019-02-16T02:01:43.468Z,12.40
2019-02-16T02:04:14.050Z,10.67
2019-02-16T02:06:44.502Z,10.83
2019-02-16T02:09:15.191Z,11.43
2019-02-16T02:11:45.648Z,10.67
2019-02-16T02:14:16.240Z,12.57
2019-02-16T02:16:46.697Z,11.97
2019-02-16T02:19:17.104Z,11.70
2019-02-16T02:21:47.607Z,13.23
2019-02-16T02:24:18.040Z,12.80
2019-02-16T02:26:49.280Z,12.60
2019-02-16T02:29:19.780Z,12.57
2019-02-16T02:31:50.240Z,12.57
2019-02-16T02:34:20.779Z,11.43
2019-02-16T02:36:51.343Z,13.83
2019-02-16T02:39:21.978Z,13.57
2019-02-16T02:41:52.460Z,14.87
2019-02-16T02:44:22.891Z,16.00
2019-02-16T02:46:53.482Z,14.30
2019-02-16T02:49:23.988Z,13.47
2019-02-16T02:51:54.975Z,13.63
2019-02-16T02:54:25.527Z,14.97
2019-02-16T02:56:56.066Z,13.80
2019-02-16T02:59:26.639Z,14.97
2019-02-16T03:01:57.230Z,15.10
2019-02-16T03:04:27.719Z,14.70
2019-02-16T03:06:58.271Z,16.70
2019-02-16T03:09:28.711Z,15.13
2019-02-16T03:11:59.222Z,14.63
2019-02-16T03:14:29.620Z,14.67
2019-02-16T03:17:00.173Z,16.07
2019-02-16T03:19:30.823Z,15.67
2019-02-16T03:22:03.193Z,16.27
2019-02-16T03:24:33.538Z,15.63
2019-02-16T03:27:20.326Z,14.67
2019-02-16T03:30:07.215Z,14.93
2019-02-16T03:33:08.661Z,13.60
2019-02-16T03:36:10.161Z,14.57
2019-02-16T03:38:47.743Z,15.37
2019-02-16T03:41:18.278Z,15.03
2019-02-16T03:43:48.769Z,16.73
2019-02-16T03:46:19.305Z,14.87
2019-02-16T03:48:49.801Z,15.13
2019-02-16T03:51:20.333Z,13.97
2019-02-16T03:53:50.779Z,14.60
2019-02-16T03:56:21.316Z,14.67
2019-02-16T03:58:51.760Z,13.90
2019-02-16T04:01:22.407Z,14.03
2019-02-16T04:03:52.996Z,13.63
2019-02-16T04:06:24.474Z,13.27
2019-02-16T04:08:55.055Z,13.50
2019-02-16T04:11:26.913Z,17.67
2019-02-16T04:13:57.406Z,15.17
2019-02-16T04:16:27.918Z,14.93
2019-02-16T04:18:58.448Z,13.77
2019-02-16T04:21:28.939Z,13.93
2019-02-16T04:23:59.406Z,13.93
2019-02-16T04:26:30.235Z,13.87
2019-02-16T04:29:01.528Z,12.73
2019-02-16T04:31:31.942Z,13.40
2019-02-16T04:34:02.489Z,14.10
2019-02-16T04:36:33.065Z,13.77
2019-02-16T04:39:05.017Z,13.50
2019-02-16T04:41:35.554Z,13.17
2019-02-16T04:44:06.133Z,13.67
2019-02-16T04:46:36.604Z,13.20
2019-02-16T04:49:07.286Z,13.70
2019-02-16T04:51:37.845Z,14.33
2019-02-16T04:54:08.239Z,13.33
2019-02-16T04:56:38.857Z,14.07
2019-02-16T04:59:09.369Z,13.63
2019-02-16T05:01:40.021Z,12.00
2019-02-16T05:04:10.480Z,13.63
2019-02-16T05:06:40.955Z,13.67
2019-02-16T05:09:11.487Z,15.27
2019-02-16T05:11:42.198Z,14.10
2019-02-16T05:14:12.637Z,14.27
2019-02-16T05:16:43.178Z,14.03
2019-02-16T05:19:13.622Z,15.23
2019-02-16T05:21:44.109Z,14.00
2019-02-16T05:24:14.661Z,13.97
2019-02-16T05:26:45.267Z,14.60
2019-02-16T05:29:16.738Z,14.83
2019-02-16T05:31:47.421Z,13.93
2019-02-16T05:34:17.904Z,15.87
2019-02-16T05:36:48.419Z,13.70
2019-02-16T05:39:18.946Z,14.00
2019-02-16T05:41:49.370Z,12.40
2019-02-16T05:44:19.999Z,13.30
2019-02-16T05:46:50.574Z,14.03
2019-02-16T05:49:21.078Z,12.47
2019-02-16T05:51:51.674Z,13.43
2019-02-16T05:54:22.303Z,13.00
2019-02-16T05:56:52.825Z,13.43
2019-02-16T05:59:23.249Z,12.77
2019-02-16T06:01:54.474Z,12.47
2019-02-16T06:04:25.178Z,12.10
2019-02-16T06:06:55.595Z,12.47
2019-02-16T06:09:26.033Z,14.23
2019-02-16T06:11:56.512Z,12.90
2019-02-16T06:14:27.143Z,13.37
2019-02-16T06:16:57.729Z,12.67
2019-02-16T06:19:28.157Z,11.70
2019-02-16T06:21:58.701Z,14.70
2019-02-16T06:24:29.183Z,13.27
2019-02-16T06:26:59.748Z,15.17
2019-02-16T06:29:31.007Z,14.83
2019-02-16T06:32:01.510Z,14.27
2019-02-16T06:34:32.497Z,15.07
2019-02-16T06:37:04.821Z,13.23
2019-02-16T06:39:35.343Z,15.47
2019-02-16T06:42:05.844Z,15.03
2019-02-16T06:44:36.268Z,14.83
2019-02-16T06:47:06.844Z,15.37
2019-02-16T06:49:37.250Z,13.77
2019-02-16T06:52:07.854Z,14.33
2019-02-16T06:54:38.256Z,13.40
2019-02-16T06:57:22.684Z,14.43
2019-02-16T06:59:53.104Z,12.83
2019-02-16T07:02:24.888Z,13.77
2019-02-16T07:04:55.338Z,13.03
2019-02-16T07:07:25.827Z,12.10
2019-02-16T07:09:56.372Z,14.53
2019-02-16T07:12:26.958Z,15.37
2019-02-16T07:14:57.577Z,16.80
2019-02-16T07:17:41.935Z,15.97
2019-02-16T07:20:12.684Z,14.40
2019-02-16T07:22:43.224Z,14.33
2019-02-16T07:25:13.662Z,13.67
2019-02-16T07:27:45.052Z,13.20
2019-02-16T07:30:16.575Z,13.10
2019-02-16T07:32:48.057Z,12.37
2019-02-16T07:35:18.514Z,12.97
2019-02-16T07:37:49.176Z,14.07
2019-02-16T07:40:19.971Z,13.63
2019-02-16T07:42:52.393Z,13.17
2019-02-16T07:45:38.784Z,12.50
2019-02-16T07:48:11.309Z,13.10
2019-02-16T07:50:43.499Z,13.50
2019-02-16T07:53:31.110Z,12.83
2019-02-16T07:56:01.003Z,13.77
2019-02-16T07:58:36.502Z,13.00
2019-02-16T08:01:11.302Z,15.30
2019-02-16T08:03:43.496Z,15.67
2019-02-16T08:06:24.224Z,17.87
2019-02-16T08:08:58.943Z,16.03
2019-02-16T08:11:33.870Z,13.53
2019-02-16T08:14:11.845Z,13.20
2019-02-16T08:16:46.590Z,13.13
2019-02-16T08:19:18.705Z,12.33
2019-02-16T08:21:50.918Z,12.07
2019-02-16T08:24:39.568Z,11.57
2019-02-16T08:27:14.454Z,12.50
2019-02-16T08:30:01.415Z,12.70
2019-02-16T08:32:37.078Z,13.27
2019-02-16T08:35:09.350Z,13.43
2019-02-16T08:37:56.608Z,13.43
2019-02-16T08:40:31.478Z,13.60
2019-02-16T08:43:18.436Z,13.03
2019-02-16T08:45:51.504Z,13.47
2019-02-16T08:48:23.593Z,12.67
2019-02-16T08:51:01.803Z,13.30
2019-02-16T08:53:39.808Z,13.17
2019-02-16T08:56:11.972Z,13.50
2019-02-16T08:58:49.945Z,13.43
2019-02-16T09:01:27.994Z,12.77
2019-02-16T09:04:02.947Z,13.73
2019-02-16T09:06:51.444Z,13.20
2019-02-16T09:09:23.533Z,12.13
2019-02-16T09:11:58.925Z,11.47
2019-02-16T09:14:49.105Z,11.57
2019-02-16T09:17:32.688Z,11.57
2019-02-16T09:20:18.112Z,12.57
2019-02-16T09:22:59.117Z,12.73
2019-02-16T09:25:37.269Z,12.80
2019-02-16T09:28:13.047Z,13.50
2019-02-16T09:30:53.827Z,13.33
2019-02-16T09:33:29.671Z,14.23
2019-02-16T09:36:01.723Z,14.23
2019-02-16T09:38:33.910Z,13.63
2019-02-16T09:41:08.768Z,13.07
2019-02-16T09:43:43.708Z,12.77
2019-02-16T09:46:24.457Z,12.17
2019-02-16T09:49:00.540Z,13.27
2019-02-16T09:51:41.810Z,12.20
2019-02-16T09:54:16.711Z,11.50
2019-02-16T09:57:06.835Z,12.10
2019-02-16T09:59:48.434Z,12.33
2019-02-16T10:02:29.224Z,13.90
2019-02-16T10:05:07.015Z,12.53
2019-02-16T10:07:44.724Z,11.10
2019-02-16T10:10:16.865Z,10.70
2019-02-16T10:12:54.795Z,12.03
2019-02-16T10:15:45.141Z,10.23
2019-02-16T10:18:23.724Z,9.20
2019-02-16T10:20:55.914Z,9.77
2019-02-16T10:23:42.707Z,9.07
2019-02-16T10:26:35.464Z,10.00
2019-02-16T10:29:13.576Z,8.07
2019-02-16T10:31:52.713Z,8.10
2019-02-16T10:34:26.304Z,7.63
2019-02-16T10:37:01.888Z,7.90
2019-02-16T10:39:50.240Z,6.93
2019-02-16T10:42:22.949Z,7.63
2019-02-16T10:45:13.184Z,7.30
2019-02-16T10:47:56.930Z,6.97
2019-02-16T10:50:31.727Z,7.30
2019-02-16T10:53:03.837Z,6.60
2019-02-16T10:55:53.702Z,7.07
2019-02-16T10:58:25.897Z,9.27
2019-02-16T11:00:58.117Z,8.87
2019-02-16T11:03:47.928Z,8.83
2019-02-16T11:06:25.904Z,7.43
2019-02-16T11:08:57.947Z,6.77
2019-02-16T11:11:45.877Z,6.70
2019-02-16T11:14:20.429Z,6.83
2019-02-16T11:17:04.091Z,6.70
2019-02-16T11:19:36.313Z,6.97
2019-02-16T11:22:11.243Z,6.90
2019-02-16T11:24:45.864Z,6.53
2019-02-16T11:27:20.704Z,7.03
2019-02-16T11:30:01.614Z,8.30
2019-02-16T11:32:34.481Z,8.03
2019-02-16T11:35:24.856Z,8.30
2019-02-16T11:37:57.040Z,8.30
2019-02-16T11:40:44.211Z,8.87
2019-02-16T11:43:18.837Z,8.00
2019-02-16T11:46:02.829Z,7.57
2019-02-16T11:48:37.874Z,8.50
2019-02-16T11:51:28.311Z,7.90
2019-02-16T11:54:02.870Z,8.40
2019-02-16T11:56:46.928Z,8.57
2019-02-16T11:59:19.192Z,8.53
2019-02-16T12:01:51.384Z,8.43
2019-02-16T12:04:32.593Z,9.50
2019-02-16T12:07:20.689Z,8.80
2019-02-16T12:09:52.781Z,9.70
2019-02-16T12:12:33.673Z,10.00
2019-02-16T12:15:18.394Z,9.97
2019-02-16T12:17:56.292Z,10.13
2019-02-16T12:20:34.191Z,10.33
2019-02-16T12:23:09.299Z,10.23
2019-02-16T12:25:41.531Z,11.70
2019-02-16T12:28:13.614Z,11.00
2019-02-16T12:30:45.817Z,11.93
2019-02-16T12:33:23.452Z,12.10
2019-02-16T12:36:12.176Z,13.30
2019-02-16T12:38:53.650Z,12.00
2019-02-16T12:41:26.894Z,12.60
2019-02-16T12:44:05.289Z,12.23
2019-02-16T12:46:37.519Z,13.17
2019-02-16T12:49:09.648Z,12.97
2019-02-16T12:51:50.669Z,12.57
2019-02-16T12:54:22.881Z,13.53
2019-02-16T12:56:56.765Z,12.53
2019-02-16T12:59:31.761Z,11.73
2019-02-16T13:02:06.495Z,12.73
2019-02-16T13:04:47.140Z,10.83
2019-02-16T13:07:19.262Z,11.30
2019-02-16T13:09:57.337Z,11.23
2019-02-16T13:12:29.544Z,10.27
2019-02-16T13:15:18.941Z,10.27
2019-02-16T13:17:56.888Z,9.57
2019-02-16T13:20:31.661Z,9.80
2019-02-16T13:23:09.709Z,10.60
2019-02-16T13:25:44.752Z,10.00
2019-02-16T13:28:22.465Z,8.50
2019-02-16T13:30:54.672Z,9.43
2019-02-16T13:33:26.784Z,9.73
2019-02-16T13:36:02.596Z,9.77
2019-02-16T13:38:43.757Z,10.20
2019-02-16T13:41:15.914Z,10.30
2019-02-16T13:43:54.130Z,9.90
2019-02-16T13:46:26.335Z,9.90
2019-02-16T13:48:58.377Z,10.67
2019-02-16T13:51:33.707Z,10.47
2019-02-16T13:54:21.765Z,10.53
2019-02-16T13:56:53.939Z,10.07
2019-02-16T13:59:34.981Z,11.07
2019-02-16T14:02:10.040Z,10.13
2019-02-16T14:04:42.285Z,10.87
2019-02-16T14:07:14.446Z,10.07
2019-02-16T14:10:02.554Z,10.47
2019-02-16T14:12:49.660Z,9.90
2019-02-16T14:15:29.457Z,10.03
2019-02-16T14:17:59.836Z,10.00
2019-02-16T14:20:30.369Z,9.97
2019-02-16T14:23:00.914Z,9.07
2019-02-16T14:25:42.113Z,9.67
2019-02-16T14:28:05.435Z,8.53
2019-02-16T14:30:36.048Z,8.33
2019-02-16T14:33:06.651Z,9.93
2019-02-16T14:35:37.227Z,9.27
2019-02-16T14:38:15.616Z,8.80
2019-02-16T14:40:46.303Z,9.50
2019-02-16T14:43:16.831Z,8.83
2019-02-16T14:45:47.357Z,10.43
2019-02-16T14:48:18.938Z,9.93
2019-02-16T14:50:50.597Z,10.53
2019-02-16T14:53:22.277Z,9.80
2019-02-16T14:55:54.473Z,10.20
2019-02-16T14:58:26.616Z,10.40
2019-02-16T15:00:57.180Z,11.40
2019-02-16T15:03:27.893Z,10.87
2019-02-16T15:05:58.379Z,10.87
2019-02-16T15:08:29.028Z,10.47
2019-02-16T15:10:59.621Z,10.17
2019-02-16T15:13:30.211Z,12.13
2019-02-16T15:16:00.737Z,11.13
2019-02-16T15:18:31.326Z,12.37
2019-02-16T15:21:01.910Z,12.17
2019-02-16T15:23:32.562Z,12.37
2019-02-16T15:26:03.445Z,12.63
2019-02-16T15:28:34.119Z,12.30
2019-02-16T15:31:05.835Z,12.93
2019-02-16T15:33:36.419Z,14.07
2019-02-16T15:36:06.861Z,14.60
2019-02-16T15:38:38.201Z,14.77
2019-02-16T15:41:08.724Z,15.17
2019-02-16T15:43:39.826Z,14.77
2019-02-16T15:46:10.374Z,15.50
2019-02-16T15:48:40.928Z,15.10
2019-02-16T15:51:11.536Z,15.70
2019-02-16T15:53:42.104Z,17.13
2019-02-16T15:56:12.729Z,16.60
2019-02-16T15:58:43.489Z,17.27
2019-02-16T16:01:14.092Z,16.77
2019-02-16T16:03:44.755Z,18.10
2019-02-16T16:06:15.282Z,18.37
2019-02-16T16:08:55.927Z,18.00
2019-02-16T16:11:28.118Z,17.93
2019-02-16T16:14:09.338Z,17.77
2019-02-16T16:16:47.428Z,19.27
2019-02-16T16:19:35.551Z,18.43
2019-02-16T16:22:07.637Z,18.57
2019-02-16T16:24:55.728Z,18.73
2019-02-16T16:27:27.924Z,19.67
2019-02-16T16:30:00.316Z,20.80
2019-02-16T16:32:35.469Z,19.63
2019-02-16T16:35:24.924Z,19.13
2019-02-16T16:37:59.071Z,19.50
2019-02-16T16:40:31.720Z,19.37
2019-02-16T16:43:06.531Z,19.40
2019-02-16T16:45:44.857Z,19.80
2019-02-16T16:48:25.829Z,20.63
2019-02-16T16:51:00.276Z,20.43
2019-02-16T16:53:41.210Z,24.70
2019-02-16T16:56:29.101Z,23.33
2019-02-16T16:59:04.127Z,30.67
2019-02-16T17:01:49.129Z,29.13
2019-02-16T17:04:30.521Z,33.40
2019-02-16T17:07:18.771Z,26.40
2019-02-16T17:10:06.546Z,29.43
2019-02-16T17:12:39.874Z,28.07
2019-02-16T17:15:28.178Z,23.57
2019-02-16T17:18:00.425Z,23.67
2019-02-16T17:20:32.580Z,22.17
2019-02-16T17:23:23.616Z,22.77
2019-02-16T17:25:58.443Z,22.97
2019-02-16T17:28:33.359Z,23.03
2019-02-16T17:31:08.222Z,22.30
2019-02-16T17:33:43.165Z,22.20
2019-02-16T17:36:30.497Z,21.80
2019-02-16T17:39:02.626Z,22.53
2019-02-16T17:41:44.482Z,22.60
2019-02-16T17:44:16.751Z,22.27
2019-02-16T17:47:06.946Z,21.40
2019-02-16T17:49:55.332Z,22.50
2019-02-16T17:52:43.557Z,22.07
2019-02-16T17:55:32.089Z,22.87
2019-02-16T17:58:11.268Z,23.10
2019-02-16T18:00:50.712Z,23.80
2019-02-16T18:03:23.268Z,23.20
2019-02-16T18:05:55.539Z,22.93
2019-02-16T18:08:27.621Z,22.20
2019-02-16T18:11:03.096Z,25.63
2019-02-16T18:13:38.443Z,23.30
2019-02-16T18:16:13.154Z,23.00
2019-02-16T18:18:45.937Z,24.07
2019-02-16T18:21:22.102Z,24.37
2019-02-16T18:23:54.247Z,24.67
2019-02-16T18:26:37.939Z,25.03
2019-02-16T18:29:09.966Z,25.80
2019-02-16T18:31:55.064Z,25.07
2019-02-16T18:34:27.109Z,26.60
2019-02-16T18:36:59.256Z,24.00
2019-02-16T18:39:31.301Z,24.13
2019-02-16T18:42:07.339Z,24.37
2019-02-16T18:44:39.980Z,23.70
2019-02-16T18:47:12.141Z,25.53
2019-02-16T18:49:51.223Z,23.50
2019-02-16T18:52:28.852Z,24.90
2019-02-16T18:55:10.893Z,24.30
2019-02-16T18:57:48.885Z,22.77
2019-02-16T19:00:20.999Z,22.67
2019-02-16T19:02:53.212Z,22.00
2019-02-16T19:05:41.463Z,20.03
2019-02-16T19:08:19.445Z,22.13
2019-02-16T19:11:07.593Z,22.07
2019-02-16T19:13:56.115Z,21.70
2019-02-16T19:16:28.306Z,21.63
2019-02-16T19:19:03.439Z,21.70
2019-02-16T19:21:41.204Z,21.33
2019-02-16T19:24:14.276Z,21.73
2019-02-16T19:26:49.133Z,26.27
2019-02-16T19:29:26.954Z,23.60
2019-02-16T19:32:04.856Z,22.10
2019-02-16T19:34:42.542Z,23.03
2019-02-16T19:37:14.612Z,22.23
2019-02-16T19:39:50.315Z,21.87
2019-02-16T19:42:25.907Z,23.70
2019-02-16T19:45:03.688Z,21.67
2019-02-16T19:47:38.812Z,22.67
2019-02-16T19:50:20.525Z,22.73
2019-02-16T19:53:08.317Z,21.33
2019-02-16T19:55:40.449Z,21.70
2019-02-16T19:58:28.250Z,21.50
2019-02-16T20:01:06.422Z,21.50
2019-02-16T20:03:41.518Z,19.93
2019-02-16T20:06:16.470Z,19.63
2019-02-16T20:08:48.586Z,19.70
2019-02-16T20:11:26.488Z,17.87
2019-02-16T20:14:04.288Z,19.53
2019-02-16T20:16:36.482Z,18.87
2019-02-16T20:19:08.590Z,16.53
2019-02-16T20:21:51.602Z,17.97
2019-02-16T20:24:23.608Z,18.13
2019-02-16T20:26:58.828Z,17.70
2019-02-16T20:29:36.691Z,17.83
2019-02-16T20:32:23.791Z,16.73
2019-02-16T20:35:07.829Z,16.87
2019-02-16T20:37:58.199Z,18.23
2019-02-16T20:40:35.943Z,20.40
2019-02-16T20:43:14.823Z,17.57
2019-02-16T20:46:01.800Z,19.67
2019-02-16T20:48:37.140Z,17.60
2019-02-16T20:51:24.284Z,19.10
2019-02-16T20:53:56.882Z,19.43
2019-02-16T20:56:35.140Z,18.97
2019-02-16T20:59:23.619Z,18.50
2019-02-16T21:02:01.483Z,20.47
2019-02-16T21:04:33.864Z,22.43
2019-02-16T21:07:07.578Z,22.03
2019-02-16T21:09:45.699Z,22.37
2019-02-16T21:12:17.722Z,20.77
2019-02-16T21:14:59.350Z,23.10
2019-02-16T21:17:49.486Z,23.40
2019-02-16T21:20:21.655Z,21.20
2019-02-16T21:22:58.461Z,22.03
2019-02-16T21:25:39.534Z,22.03
2019-02-16T21:28:11.706Z,20.77
2019-02-16T21:30:43.860Z,17.83
2019-02-16T21:33:15.876Z,21.67
2019-02-16T21:35:50.590Z,22.50
2019-02-16T21:38:29.205Z,21.30
2019-02-16T21:41:07.270Z,22.97
2019-02-16T21:43:51.824Z,25.00
2019-02-16T21:46:24.009Z,24.27
2019-02-16T21:49:04.979Z,23.60
2019-02-16T21:51:37.052Z,23.87
2019-02-16T21:54:09.142Z,23.17
2019-02-16T21:56:50.834Z,25.13
2019-02-16T21:59:32.012Z,24.43
2019-02-16T22:02:06.978Z,25.03
2019-02-16T22:04:41.608Z,23.43
2019-02-16T22:07:19.348Z,23.33
2019-02-16T22:09:53.964Z,25.07
2019-02-16T22:12:38.094Z,23.10
2019-02-16T22:15:09.905Z,23.73
2019-02-16T22:17:40.308Z,21.67
2019-02-16T22:20:11.156Z,22.50
2019-02-16T22:22:41.543Z,22.70
2019-02-16T22:25:12.164Z,24.00
2019-02-16T22:27:42.695Z,22.63
2019-02-16T22:30:13.352Z,20.23
2019-02-16T22:32:44.882Z,22.97
2019-02-16T22:35:15.447Z,20.37
2019-02-16T22:37:45.904Z,20.27
2019-02-16T22:40:17.257Z,21.50
2019-02-16T22:42:48.916Z,19.03
2019-02-16T22:45:20.271Z,21.27
2019-02-16T22:47:50.808Z,21.23
2019-02-16T22:50:21.187Z,21.67
2019-02-16T22:52:51.623Z,19.47
2019-02-16T22:55:22.204Z,20.03
2019-02-16T22:57:52.853Z,21.17
2019-02-16T23:00:40.511Z,20.03
2019-02-16T23:03:11.329Z,20.17
2019-02-16T23:05:41.899Z,18.70
2019-02-16T23:08:12.427Z,20.87
2019-02-16T23:10:43.049Z,19.90
2019-02-16T23:13:13.856Z,19.10
2019-02-16T23:15:44.372Z,20.50
2019-02-16T23:18:15.440Z,19.53
2019-02-16T23:20:47.675Z,20.03
2019-02-16T23:23:18.179Z,19.00
2019-02-16T23:25:48.750Z,17.97
2019-02-16T23:28:19.399Z,18.43
2019-02-16T23:30:50.020Z,19.10
2019-02-16T23:33:21.061Z,19.33
2019-02-16T23:35:51.567Z,18.57
2019-02-16T23:38:22.109Z,20.07
2019-02-16T23:40:52.544Z,18.00
2019-02-16T23:43:23.076Z,18.83
2019-02-16T23:45:54.311Z,18.00
2019-02-16T23:48:24.876Z,17.60
2019-02-16T23:50:55.309Z,18.10
2019-02-16T23:53:25.772Z,17.77
2019-02-16T23:55:56.221Z,18.03
2019-02-16T23:58:27.359Z,17.30
